createdAt,value
2022-10-28T00:00:38.556Z,16.77
2022-10-28T00:03:05.540Z,17.40
2022-10-28T00:05:35.014Z,16.42
2022-10-28T00:08:01.948Z,15.82
2022-10-28T00:10:28.839Z,16.25
2022-10-28T00:12:55.694Z,15.40
2022-10-28T00:15:22.623Z,16.52
2022-10-28T00:17:49.557Z,15.68
2022-10-28T00:20:16.532Z,16.40
2022-10-28T00:22:43.533Z,15.60
2022-10-28T00:25:11.009Z,15.82
2022-10-28T00:27:37.912Z,15.68
2022-10-28T00:30:05.535Z,15.98
2022-10-28T00:32:32.708Z,14.57
2022-10-28T00:34:59.540Z,14.80
2022-10-28T00:37:26.348Z,16.63
2022-10-28T00:39:53.235Z,15.15
2022-10-28T00:42:22.490Z,14.85
2022-10-28T00:44:54.281Z,14.50
2022-10-28T00:47:21.087Z,13.60
2022-10-28T00:49:49.074Z,14.13
2022-10-28T00:52:24.429Z,14.13
2022-10-28T00:54:52.917Z,13.77
2022-10-28T00:57:24.415Z,12.38
2022-10-28T00:59:53.484Z,13.32
2022-10-28T01:02:21.311Z,12.85
2022-10-28T01:04:48.569Z,12.63
2022-10-28T01:07:16.892Z,13.48
2022-10-28T01:09:44.691Z,13.73
2022-10-28T01:12:14.274Z,12.45
2022-10-28T01:14:47.007Z,13.50
2022-10-28T01:17:51.428Z,12.68
2022-10-28T01:20:39.794Z,12.07
2022-10-28T01:23:18.416Z,12.23
2022-10-28T01:25:57.392Z,12.40
2022-10-28T01:28:33.671Z,12.13
2022-10-28T01:31:27.576Z,11.45
2022-10-28T01:33:58.020Z,11.52
2022-10-28T01:36:36.509Z,11.90
2022-10-28T01:39:08.966Z,11.77
2022-10-28T01:41:57.291Z,10.60
2022-10-28T01:44:52.819Z,10.50
2022-10-28T01:47:27.386Z,11.32
2022-10-28T01:50:31.403Z,10.23
2022-10-28T01:53:01.260Z,10.30
2022-10-28T01:55:36.366Z,10.93
2022-10-28T01:58:05.055Z,10.02
2022-10-28T02:00:32.993Z,10.35
2022-10-28T02:03:00.083Z,10.18
2022-10-28T02:05:42.355Z,9.65
2022-10-28T02:08:18.135Z,9.23
2022-10-28T02:10:59.995Z,9.70
2022-10-28T02:13:50.976Z,8.68
2022-10-28T02:16:27.588Z,10.07
2022-10-28T02:19:17.572Z,8.75
2022-10-28T02:21:47.103Z,8.77
2022-10-28T02:24:37.572Z,9.93
2022-10-28T02:27:13.684Z,9.05
2022-10-28T02:30:06.699Z,8.93
2022-10-28T02:32:38.584Z,9.30
2022-10-28T02:35:11.937Z,8.90
2022-10-28T02:37:40.545Z,9.48
2022-10-28T02:40:14.118Z,9.43
2022-10-28T02:42:50.463Z,9.00
2022-10-28T02:45:22.433Z,8.60
2022-10-28T02:47:55.703Z,9.27
2022-10-28T02:50:32.614Z,8.75
2022-10-28T02:53:02.295Z,8.48
2022-10-28T02:55:35.450Z,9.20
2022-10-28T02:58:02.483Z,10.32
2022-10-28T03:00:29.380Z,9.45
2022-10-28T03:02:56.276Z,9.15
2022-10-28T03:05:23.239Z,9.55
2022-10-28T03:07:50.082Z,9.68
2022-10-28T03:10:17.331Z,9.55
2022-10-28T03:12:44.138Z,9.00
2022-10-28T03:15:11.308Z,9.68
2022-10-28T03:17:38.155Z,10.73
2022-10-28T03:20:05.543Z,9.88
2022-10-28T03:22:32.416Z,9.60
2022-10-28T03:24:59.322Z,10.38
2022-10-28T03:27:26.138Z,10.43
2022-10-28T03:29:53.067Z,9.90
2022-10-28T03:32:19.927Z,10.27
2022-10-28T03:34:47.573Z,10.18
2022-10-28T03:37:14.682Z,10.10
2022-10-28T03:39:41.566Z,10.75
2022-10-28T03:42:08.717Z,11.07
2022-10-28T03:44:35.682Z,11.00
2022-10-28T03:47:02.574Z,11.43
2022-10-28T03:49:29.420Z,11.38
2022-10-28T03:51:56.356Z,11.30
2022-10-28T03:54:23.231Z,12.20
2022-10-28T03:56:50.055Z,11.85
2022-10-28T03:59:19.354Z,11.18
2022-10-28T04:01:47.324Z,11.95
2022-10-28T04:04:14.325Z,11.65
2022-10-28T04:06:41.195Z,12.20
2022-10-28T04:09:08.117Z,11.35
2022-10-28T04:11:35.059Z,11.48
2022-10-28T04:14:02.081Z,10.90
2022-10-28T04:16:29.104Z,10.88
2022-10-28T04:18:55.999Z,10.85
2022-10-28T04:21:22.895Z,10.73
2022-10-28T04:23:49.739Z,12.93
2022-10-28T04:26:16.634Z,14.75
2022-10-28T04:28:43.439Z,17.90
2022-10-28T04:31:12.225Z,16.15
2022-10-28T04:33:39.208Z,14.00
2022-10-28T04:36:06.458Z,14.27
2022-10-28T04:38:33.371Z,12.25
2022-10-28T04:41:02.421Z,12.73
2022-10-28T04:43:29.260Z,12.45
2022-10-28T04:45:56.122Z,13.38
2022-10-28T04:48:23.177Z,13.55
2022-10-28T04:50:51.066Z,12.73
2022-10-28T04:53:17.998Z,11.85
2022-10-28T04:55:45.471Z,12.82
2022-10-28T04:58:12.496Z,12.75
2022-10-28T05:00:39.405Z,12.73
2022-10-28T05:03:06.355Z,11.55
2022-10-28T05:05:33.727Z,11.52
2022-10-28T05:08:00.688Z,12.48
2022-10-28T05:10:27.608Z,11.27
2022-10-28T05:12:54.485Z,11.82
2022-10-28T05:15:21.351Z,10.48
2022-10-28T05:17:48.507Z,12.85
2022-10-28T05:20:17.428Z,14.45
2022-10-28T05:25:15.099Z,13.88
2022-10-28T05:27:42.264Z,12.00
2022-10-28T05:30:10.182Z,11.70
2022-10-28T05:32:37.103Z,12.82
2022-10-28T05:35:04.398Z,14.02
2022-10-28T05:37:31.290Z,14.52
2022-10-28T05:39:58.166Z,13.88
2022-10-28T05:42:25.208Z,13.55
2022-10-28T05:44:52.096Z,12.32
2022-10-28T05:47:19.001Z,11.10
2022-10-28T05:49:45.902Z,12.38
2022-10-28T05:52:12.815Z,12.13
2022-10-28T05:54:39.676Z,11.02
2022-10-28T05:57:06.548Z,9.82
2022-10-28T05:59:33.403Z,10.07
2022-10-28T06:02:00.352Z,10.73
2022-10-28T06:04:27.308Z,10.25
2022-10-28T06:06:56.147Z,13.23
2022-10-28T06:09:23.070Z,10.13
2022-10-28T06:11:48.416Z,8.98
2022-10-28T06:14:15.238Z,8.00
2022-10-28T06:16:42.429Z,8.65
2022-10-28T06:19:09.393Z,9.27
2022-10-28T06:21:36.293Z,8.13
2022-10-28T06:24:03.653Z,6.68
2022-10-28T06:26:30.610Z,7.95
2022-10-28T06:28:57.450Z,8.05
2022-10-28T06:31:24.325Z,6.65
2022-10-28T06:33:51.192Z,8.10
2022-10-28T06:36:18.059Z,6.85
2022-10-28T06:38:46.055Z,6.10
2022-10-28T06:41:12.971Z,6.22
2022-10-28T06:43:39.842Z,5.70
2022-10-28T06:46:06.738Z,6.90
2022-10-28T06:48:35.211Z,5.47
2022-10-28T06:51:02.089Z,4.93
2022-10-28T06:53:29.062Z,4.97
2022-10-28T06:55:57.693Z,6.47
2022-10-28T06:58:25.786Z,5.60
2022-10-28T07:00:53.304Z,7.03
2022-10-28T07:03:20.568Z,4.68
2022-10-28T07:05:49.293Z,5.15
2022-10-28T07:08:17.007Z,5.00
2022-10-28T07:10:45.029Z,6.03
2022-10-28T07:13:12.203Z,6.05
2022-10-28T07:15:39.127Z,6.10
2022-10-28T07:18:06.207Z,4.80
2022-10-28T07:20:33.085Z,5.28
2022-10-28T07:23:02.013Z,5.85
2022-10-28T07:25:30.676Z,6.53
2022-10-28T07:27:58.839Z,5.63
2022-10-28T07:30:26.533Z,5.07
2022-10-28T07:32:53.925Z,5.07
2022-10-28T07:35:21.351Z,5.18
2022-10-28T07:37:48.247Z,4.15
2022-10-28T07:40:15.449Z,4.70
2022-10-28T07:42:42.411Z,4.70
2022-10-28T07:45:09.887Z,5.20
2022-10-28T07:47:36.881Z,4.10
2022-10-28T07:50:04.592Z,4.68
2022-10-28T07:52:31.734Z,4.35
2022-10-28T07:54:58.609Z,4.30
2022-10-28T07:57:25.609Z,4.63
2022-10-28T07:59:52.480Z,4.75
2022-10-28T08:02:21.576Z,4.07
2022-10-28T08:04:49.078Z,4.03
2022-10-28T08:07:16.191Z,5.53
2022-10-28T08:09:43.045Z,4.85
2022-10-28T08:12:13.677Z,5.57
2022-10-28T08:14:40.628Z,4.65
2022-10-28T08:17:07.742Z,5.00
2022-10-28T08:19:34.603Z,5.95
2022-10-28T08:22:02.508Z,5.13
2022-10-28T08:24:29.485Z,5.18
2022-10-28T08:26:56.356Z,6.22
2022-10-28T08:29:27.657Z,5.18
2022-10-28T08:31:57.899Z,5.35
2022-10-28T08:34:29.933Z,6.15
2022-10-28T08:36:57.869Z,5.40
2022-10-28T08:39:25.007Z,5.43
2022-10-28T08:42:09.661Z,5.32
2022-10-28T08:44:53.420Z,6.40
2022-10-28T08:47:41.775Z,6.40
2022-10-28T08:50:31.918Z,6.95
2022-10-28T08:53:12.558Z,7.53
2022-10-28T08:55:46.236Z,8.63
2022-10-28T08:58:26.646Z,8.00
2022-10-28T09:00:55.975Z,7.32
2022-10-28T09:03:26.052Z,10.80
2022-10-28T09:06:07.799Z,7.80
2022-10-28T09:08:37.822Z,6.60
2022-10-28T09:11:10.793Z,6.57
2022-10-28T09:13:51.565Z,7.10
2022-10-28T09:16:27.657Z,7.47
2022-10-28T09:18:56.570Z,7.97
2022-10-28T09:24:24.153Z,7.30
2022-10-28T09:27:03.158Z,7.50
2022-10-28T09:32:31.270Z,6.10
2022-10-28T09:35:15.433Z,6.07
2022-10-28T09:37:51.355Z,6.57
2022-10-28T09:40:49.463Z,5.75
2022-10-28T09:43:23.137Z,6.03
2022-10-28T09:45:52.288Z,5.20
2022-10-28T09:48:45.555Z,6.15
2022-10-28T09:51:34.883Z,5.70
2022-10-28T09:54:02.486Z,4.50
2022-10-28T09:56:30.517Z,5.22
2022-10-28T09:59:03.197Z,5.60
2022-10-28T10:01:41.776Z,5.30
2022-10-28T10:04:23.657Z,5.15
2022-10-28T10:06:54.247Z,6.05
2022-10-28T10:09:25.546Z,5.40
2022-10-28T10:12:00.730Z,6.22
2022-10-28T10:14:37.266Z,6.63
2022-10-28T10:17:10.296Z,6.70
2022-10-28T10:20:05.365Z,8.15
2022-10-28T10:22:38.175Z,6.28
2022-10-28T10:25:23.896Z,5.85
2022-10-28T10:27:55.869Z,5.97
2022-10-28T10:30:29.357Z,5.63
2022-10-28T10:32:57.589Z,6.10
2022-10-28T10:35:33.147Z,5.50
2022-10-28T10:38:06.677Z,5.63
2022-10-28T10:40:51.458Z,5.60
2022-10-28T10:43:18.438Z,6.15
2022-10-28T10:46:02.539Z,5.18
2022-10-28T10:48:32.469Z,5.68
2022-10-28T10:51:07.770Z,5.88
2022-10-28T10:53:36.271Z,7.53
2022-10-28T10:56:06.462Z,6.40
2022-10-28T10:58:40.439Z,5.72
2022-10-28T11:01:09.648Z,6.50
2022-10-28T11:03:39.300Z,6.07
2022-10-28T11:06:24.774Z,8.00
2022-10-28T11:09:01.408Z,7.25
2022-10-28T11:11:41.352Z,6.00
2022-10-28T11:14:12.404Z,6.68
2022-10-28T11:16:54.118Z,6.80
2022-10-28T11:19:23.829Z,6.82
2022-10-28T11:22:14.219Z,7.07
2022-10-28T11:24:47.177Z,6.32
2022-10-28T11:27:35.872Z,8.18
2022-10-28T11:30:03.168Z,7.35
2022-10-28T11:33:30.418Z,6.32
2022-10-28T11:36:20.793Z,6.67
2022-10-28T11:38:55.140Z,6.57
2022-10-28T11:41:22.033Z,7.25
2022-10-28T11:43:58.563Z,6.82
2022-10-28T11:46:40.609Z,6.68
2022-10-28T11:49:35.226Z,7.28
2022-10-28T11:52:26.893Z,6.95
2022-10-28T11:55:27.507Z,6.97
2022-10-28T11:58:19.323Z,7.60
2022-10-28T12:01:18.469Z,10.32
2022-10-28T12:04:20.051Z,7.60
2022-10-28T12:07:24.074Z,6.53
2022-10-28T12:10:02.814Z,6.90
2022-10-28T12:12:44.817Z,6.60
2022-10-28T12:15:40.684Z,7.00
2022-10-28T12:18:22.203Z,6.70
2022-10-28T12:20:59.468Z,6.47
2022-10-28T12:23:27.391Z,6.78
2022-10-28T12:25:57.520Z,6.68
2022-10-28T12:28:41.364Z,6.07
2022-10-28T12:31:21.891Z,6.15
2022-10-28T12:33:53.251Z,5.05
2022-10-28T12:36:40.340Z,6.35
2022-10-28T12:39:21.561Z,5.57
2022-10-28T12:41:59.980Z,5.93
2022-10-28T12:44:28.321Z,6.03
2022-10-28T12:47:12.625Z,5.13
2022-10-28T12:50:27.019Z,5.40
2022-10-28T12:53:18.846Z,5.25
2022-10-28T12:55:56.581Z,4.97
2022-10-28T12:58:36.109Z,4.80
2022-10-28T13:01:13.271Z,4.80
2022-10-28T13:03:40.984Z,4.90
2022-10-28T13:06:19.639Z,4.57
2022-10-28T13:09:10.606Z,5.20
2022-10-28T13:12:09.245Z,5.55
2022-10-28T13:15:03.062Z,5.72
2022-10-28T13:17:53.169Z,4.78
2022-10-28T13:20:29.400Z,4.88
2022-10-28T13:23:16.004Z,5.38
2022-10-28T13:26:01.206Z,5.20
2022-10-28T13:28:41.481Z,5.57
2022-10-28T13:31:08.966Z,6.10
2022-10-28T13:33:37.877Z,5.90
2022-10-28T13:39:01.518Z,5.10
2022-10-28T13:41:35.312Z,6.50
2022-10-28T13:44:11.137Z,5.28
2022-10-28T13:47:01.321Z,5.82
2022-10-28T13:49:35.634Z,4.72
2022-10-28T13:52:18.724Z,5.05
2022-10-28T13:54:45.551Z,5.90
2022-10-28T13:57:36.885Z,5.88
2022-10-28T14:00:26.118Z,6.05
2022-10-28T14:03:02.103Z,5.72
2022-10-28T14:05:38.062Z,6.32
2022-10-28T14:08:19.618Z,6.53
2022-10-28T14:11:10.203Z,6.40
2022-10-28T14:14:00.876Z,6.22
2022-10-28T14:16:43.967Z,6.35
2022-10-28T14:19:10.988Z,7.45
2022-10-28T14:22:01.498Z,6.13
2022-10-28T14:24:34.021Z,6.57
2022-10-28T14:27:06.806Z,6.47
2022-10-28T14:29:48.072Z,6.50
2022-10-28T14:32:33.797Z,7.25
2022-10-28T14:35:13.198Z,7.03
2022-10-28T14:37:58.733Z,7.60
2022-10-28T14:40:44.664Z,7.45
2022-10-28T14:43:35.976Z,7.18
2022-10-28T14:46:36.922Z,6.68
2022-10-28T14:49:05.217Z,6.95
2022-10-28T14:51:41.936Z,6.35
2022-10-28T14:54:15.228Z,6.70
2022-10-28T14:56:43.022Z,7.38
2022-10-28T14:59:24.921Z,6.10
2022-10-28T15:02:12.088Z,7.20
2022-10-28T15:04:41.663Z,6.78
2022-10-28T15:07:14.987Z,7.00
2022-10-28T15:09:44.069Z,11.45
2022-10-28T15:12:19.402Z,8.25
2022-10-28T15:14:52.319Z,7.35
2022-10-28T15:17:28.387Z,7.47
2022-10-28T15:19:57.985Z,7.82
2022-10-28T15:22:30.865Z,7.90
2022-10-28T15:24:57.784Z,7.53
2022-10-28T15:27:27.183Z,7.82
2022-10-28T15:29:55.949Z,6.85
2022-10-28T15:32:22.732Z,8.18
2022-10-28T15:34:49.851Z,8.45
2022-10-28T15:37:25.101Z,8.20
2022-10-28T15:40:06.256Z,8.18
2022-10-28T15:42:49.503Z,9.40
2022-10-28T15:45:20.000Z,8.60
2022-10-28T15:47:48.695Z,9.23
2022-10-28T15:50:15.514Z,8.27
2022-10-28T15:52:44.249Z,8.95
2022-10-28T15:55:21.757Z,12.43
2022-10-28T15:57:59.021Z,9.82
2022-10-28T16:00:30.953Z,9.60
2022-10-28T16:03:02.801Z,9.40
2022-10-28T16:05:32.550Z,10.27
2022-10-28T16:08:20.547Z,10.52
2022-10-28T16:10:56.492Z,10.77
2022-10-28T16:13:40.089Z,11.75
2022-10-28T16:16:10.514Z,11.25
2022-10-28T16:18:47.774Z,11.48
2022-10-28T16:21:24.180Z,10.25
2022-10-28T16:24:01.898Z,11.02
2022-10-28T16:26:31.275Z,10.43
2022-10-28T16:28:58.117Z,10.93
2022-10-28T16:31:28.622Z,10.32
2022-10-28T16:33:55.689Z,11.02
2022-10-28T16:36:22.559Z,11.30
2022-10-28T16:38:49.499Z,11.50
2022-10-28T16:41:18.759Z,11.68
2022-10-28T16:43:46.220Z,11.15
2022-10-28T16:46:14.627Z,12.32
2022-10-28T16:48:41.841Z,13.65
2022-10-28T16:51:17.647Z,13.13
2022-10-28T16:53:47.418Z,12.68
2022-10-28T16:56:17.717Z,12.68
2022-10-28T16:58:44.769Z,12.55
2022-10-28T17:01:13.539Z,13.18
2022-10-28T17:03:40.413Z,12.52
2022-10-28T17:06:08.713Z,13.30
2022-10-28T17:09:01.394Z,14.27
2022-10-28T17:11:22.464Z,12.95
2022-10-28T17:13:49.327Z,13.90
2022-10-28T17:16:16.171Z,13.73
2022-10-28T17:18:44.279Z,13.38
2022-10-28T17:21:11.163Z,12.70
2022-10-28T17:23:39.901Z,14.20
2022-10-28T17:26:06.923Z,12.48
2022-10-28T17:28:33.828Z,13.73
2022-10-28T17:31:05.240Z,14.43
2022-10-28T17:33:32.548Z,12.68
2022-10-28T17:36:05.280Z,13.10
2022-10-28T17:38:32.384Z,12.73
2022-10-28T17:40:59.435Z,13.07
2022-10-28T17:43:26.329Z,12.80
2022-10-28T17:45:55.018Z,13.43
2022-10-28T17:48:21.813Z,11.48
2022-10-28T17:50:55.228Z,12.88
2022-10-28T17:53:22.348Z,13.43
2022-10-28T17:55:57.009Z,13.32
2022-10-28T17:58:24.331Z,13.57
2022-10-28T18:01:04.238Z,13.52
2022-10-28T18:03:35.531Z,13.63
2022-10-28T18:06:07.782Z,13.77
2022-10-28T18:08:37.545Z,13.20
2022-10-28T18:11:05.625Z,13.13
2022-10-28T18:13:35.205Z,14.00
2022-10-28T18:16:09.035Z,13.73
2022-10-28T18:18:41.049Z,15.65
2022-10-28T18:21:11.291Z,13.13
2022-10-28T18:23:38.507Z,14.73
2022-10-28T18:26:14.086Z,13.93
2022-10-28T18:28:42.111Z,13.32
2022-10-28T18:31:20.239Z,14.10
2022-10-28T18:33:49.746Z,14.57
2022-10-28T18:36:19.699Z,14.18
2022-10-28T18:38:46.664Z,14.48
2022-10-28T18:41:16.692Z,15.55
2022-10-28T18:43:43.608Z,14.05
2022-10-28T18:46:10.716Z,14.98
2022-10-28T18:48:37.711Z,15.20
2022-10-28T18:51:06.901Z,14.73
2022-10-28T18:53:41.685Z,14.80
2022-10-28T18:56:17.673Z,14.93
2022-10-28T18:58:45.295Z,14.38
2022-10-28T19:01:18.296Z,15.57
2022-10-28T19:03:45.389Z,16.70
2022-10-28T19:06:14.831Z,16.00
2022-10-28T19:08:42.285Z,15.45
2022-10-28T19:11:11.540Z,16.60
2022-10-28T19:13:40.610Z,15.57
2022-10-28T19:16:08.827Z,14.23
2022-10-28T19:18:38.259Z,15.52
2022-10-28T19:21:12.566Z,15.60
2022-10-28T19:23:39.974Z,16.10
2022-10-28T19:26:08.050Z,16.25
2022-10-28T19:28:43.924Z,15.67
2022-10-28T19:31:13.209Z,15.50
2022-10-28T19:33:40.328Z,16.17
2022-10-28T19:36:18.625Z,15.80
2022-10-28T19:38:47.412Z,15.85
2022-10-28T19:43:42.937Z,16.38
2022-10-28T19:46:18.250Z,16.55
2022-10-28T19:48:49.661Z,15.48
2022-10-28T19:51:19.145Z,16.95
2022-10-28T19:53:50.396Z,14.98
2022-10-28T19:56:19.447Z,17.08
2022-10-28T19:58:49.199Z,15.55
2022-10-28T20:01:17.581Z,17.13
2022-10-28T20:03:48.947Z,16.85
2022-10-28T20:06:17.679Z,16.38
2022-10-28T20:08:49.379Z,16.77
2022-10-28T20:11:24.717Z,16.33
2022-10-28T20:13:58.415Z,16.13
2022-10-28T20:16:25.903Z,16.52
2022-10-28T20:18:56.610Z,16.73
2022-10-28T20:21:26.065Z,16.63
2022-10-28T20:23:55.233Z,16.42
2022-10-28T20:26:25.912Z,16.15
2022-10-28T20:28:53.011Z,15.90
2022-10-28T20:31:22.435Z,16.13
2022-10-28T20:33:54.412Z,16.25
2022-10-28T20:36:27.118Z,16.88
2022-10-28T20:39:18.026Z,17.50
2022-10-28T20:41:46.339Z,16.77
2022-10-28T20:44:13.699Z,15.85
2022-10-28T20:46:40.666Z,17.65
2022-10-28T20:49:10.961Z,16.15
2022-10-28T20:51:37.966Z,16.92
2022-10-28T20:54:05.078Z,16.60
2022-10-28T20:56:34.706Z,17.20
2022-10-28T20:59:01.630Z,17.08
2022-10-28T21:01:36.850Z,17.38
2022-10-28T21:04:06.389Z,17.10
2022-10-28T21:06:33.800Z,19.13
2022-10-28T21:09:00.946Z,17.60
2022-10-28T21:11:29.048Z,18.13
2022-10-28T21:13:59.411Z,17.97
2022-10-28T21:16:27.669Z,18.08
2022-10-28T21:18:54.967Z,18.02
2022-10-28T21:21:23.313Z,18.25
2022-10-28T21:23:50.223Z,17.50
2022-10-28T21:26:20.523Z,17.70
2022-10-28T21:28:52.075Z,17.48
2022-10-28T21:31:20.766Z,16.63
2022-10-28T21:36:22.045Z,17.13
2022-10-28T21:38:52.344Z,15.20
2022-10-28T21:41:20.791Z,14.93
2022-10-28T21:43:50.442Z,14.95
2022-10-28T21:46:19.076Z,14.10
2022-10-28T21:48:46.141Z,13.27
2022-10-28T21:51:15.163Z,13.20
2022-10-28T21:53:43.935Z,12.35
2022-10-28T21:56:16.940Z,12.50
2022-10-28T21:58:44.458Z,13.15
2022-10-28T22:01:22.018Z,13.38
2022-10-28T22:03:50.104Z,13.02
2022-10-28T22:06:17.286Z,12.52
2022-10-28T22:08:44.270Z,12.75
2022-10-28T22:11:16.302Z,12.32
2022-10-28T22:13:43.519Z,13.27
2022-10-28T22:16:12.458Z,13.07
2022-10-28T22:21:14.152Z,12.93
2022-10-28T22:23:41.242Z,14.93
2022-10-28T22:26:11.109Z,13.18
2022-10-28T22:28:38.981Z,13.95
2022-10-28T22:31:08.405Z,13.48
2022-10-28T22:33:35.789Z,14.90
2022-10-28T22:36:05.708Z,13.43
2022-10-28T22:38:33.247Z,14.90
2022-10-28T22:41:21.034Z,14.00
2022-10-28T22:43:56.240Z,13.52
2022-10-28T22:46:26.191Z,14.45
2022-10-28T22:48:53.532Z,14.13
2022-10-28T22:51:21.256Z,13.73
2022-10-28T22:53:48.240Z,14.05
2022-10-28T22:56:20.741Z,13.50
2022-10-28T22:58:48.897Z,13.35
2022-10-28T23:01:18.559Z,13.63
2022-10-28T23:03:47.568Z,13.02
2022-10-28T23:08:43.037Z,11.77
2022-10-28T23:11:10.394Z,13.35
2022-10-28T23:16:14.939Z,12.32
2022-10-28T23:18:42.866Z,11.90
2022-10-28T23:21:15.229Z,12.52
2022-10-28T23:23:43.069Z,12.07
2022-10-28T23:26:11.142Z,12.05
2022-10-28T23:28:38.038Z,12.10
2022-10-28T23:31:06.089Z,12.27
2022-10-28T23:33:34.050Z,11.77
2022-10-28T23:36:03.754Z,11.88
2022-10-28T23:38:31.553Z,12.10
2022-10-28T23:41:00.494Z,12.18
2022-10-28T23:45:56.116Z,10.50
2022-10-28T23:48:23.452Z,11.40
2022-10-28T23:50:51.176Z,11.05
2022-10-28T23:53:18.898Z,11.90
2022-10-28T23:55:47.529Z,11.05
2022-10-28T23:58:16.086Z,11.45
